createdAt,value
2023-02-11T00:00:28.465Z,4.8
2023-02-11T00:03:29.395Z,4.8
2023-02-11T00:06:31.541Z,4.8
2023-02-11T00:09:32.028Z,4.8
2023-02-11T00:12:28.715Z,4.8
2023-02-11T00:15:45.700Z,4.8
2023-02-11T00:18:28.841Z,4.8
2023-02-11T00:21:28.223Z,4.8
2023-02-11T00:24:28.628Z,4.8
2023-02-11T00:27:31.206Z,4.8
2023-02-11T00:30:29.328Z,4.8
2023-02-11T00:33:28.476Z,4.8
2023-02-11T00:36:30.909Z,4.9
2023-02-11T00:39:28.817Z,4.9
2023-02-11T00:42:28.638Z,4.9
2023-02-11T00:45:41.619Z,4.9
2023-02-11T00:48:28.571Z,4.9
2023-02-11T00:51:29.073Z,4.9
2023-02-11T00:54:32.728Z,4.9
2023-02-11T00:57:28.728Z,4.9
2023-02-11T01:00:28.510Z,4.9
2023-02-11T01:03:29.130Z,4.9
2023-02-11T01:06:31.559Z,4.9
2023-02-11T01:09:28.758Z,4.9
2023-02-11T01:12:28.392Z,4.9
2023-02-11T01:15:31.830Z,4.9
2023-02-11T01:18:29.134Z,4.9
2023-02-11T01:21:28.784Z,4.9
2023-02-11T01:24:31.793Z,4.9
2023-02-11T01:27:28.867Z,4.9
2023-02-11T01:30:28.729Z,4.9
2023-02-11T01:33:31.030Z,4.9
2023-02-11T01:36:29.099Z,4.9
2023-02-11T01:39:28.854Z,4.9
2023-02-11T01:42:28.418Z,4.9
2023-02-11T01:45:31.808Z,5
2023-02-11T01:48:28.961Z,5
2023-02-11T01:51:28.677Z,5
2023-02-11T01:54:31.362Z,5
2023-02-11T01:57:28.656Z,5
2023-02-11T02:00:29.166Z,5
2023-02-11T02:03:31.178Z,5
2023-02-11T02:06:28.898Z,5
2023-02-11T02:09:28.744Z,5
2023-02-11T02:12:31.204Z,5
2023-02-11T02:15:28.365Z,5
2023-02-11T02:18:28.990Z,5
2023-02-11T02:21:28.807Z,5
2023-02-11T02:24:31.156Z,5.1
2023-02-11T02:27:29.290Z,5.1
2023-02-11T02:30:29.107Z,5.1
2023-02-11T02:33:31.430Z,5.1
2023-02-11T02:36:29.177Z,5.1
2023-02-11T02:39:29.024Z,5.1
2023-02-11T02:42:31.495Z,5.1
2023-02-11T02:45:28.377Z,5.1
2023-02-11T02:48:29.263Z,5.1
2023-02-11T02:51:31.029Z,5.2
2023-02-11T02:54:28.929Z,5.2
2023-02-11T02:57:28.443Z,5.2
2023-02-11T03:00:29.005Z,5.2
2023-02-11T03:03:31.391Z,5.2
2023-02-11T03:06:29.364Z,5.2
2023-02-11T03:09:28.891Z,5.2
2023-02-11T03:12:31.144Z,5.2
2023-02-11T03:15:28.359Z,5.2
2023-02-11T03:18:29.060Z,5.2
2023-02-11T03:21:31.186Z,5.3
2023-02-11T03:24:29.202Z,5.3
2023-02-11T03:27:28.747Z,5.3
2023-02-11T03:30:32.209Z,5.4
2023-02-11T03:33:28.895Z,5.4
2023-02-11T03:36:28.487Z,5.4
2023-02-11T03:39:29.234Z,5.4
2023-02-11T03:42:31.173Z,5.4
2023-02-11T03:45:29.138Z,5.4
2023-02-11T03:48:28.715Z,5.4
2023-02-11T03:51:31.708Z,5.5
2023-02-11T03:54:28.723Z,5.5
2023-02-11T03:57:29.162Z,5.5
2023-02-11T04:00:31.166Z,5.5
2023-02-11T04:03:29.219Z,5.5
2023-02-11T04:06:28.460Z,5.5
2023-02-11T04:09:31.771Z,5.6
2023-02-11T04:12:28.608Z,5.6
2023-02-11T04:15:29.108Z,5.6
2023-02-11T04:18:28.790Z,5.6
2023-02-11T04:21:30.920Z,5.6
2023-02-11T04:24:28.829Z,5.6
2023-02-11T04:27:28.703Z,5.6
2023-02-11T04:30:31.064Z,5.7
2023-02-11T04:33:29.051Z,5.7
2023-02-11T04:36:28.653Z,5.7
2023-02-11T04:39:31.853Z,5.7
2023-02-11T04:42:28.662Z,5.7
2023-02-11T04:45:28.456Z,5.7
2023-02-11T04:48:31.663Z,5.8
2023-02-11T04:51:28.406Z,5.8
2023-02-11T04:54:28.976Z,5.8
2023-02-11T04:57:28.584Z,5.8
2023-02-11T05:00:31.932Z,5.8
2023-02-11T05:03:28.738Z,5.8
2023-02-11T05:06:28.321Z,5.8
2023-02-11T05:09:31.513Z,5.8
2023-02-11T05:12:29.064Z,5.8
2023-02-11T05:15:28.737Z,5.8
2023-02-11T05:18:31.074Z,5.9
2023-02-11T05:21:29.025Z,5.9
2023-02-11T05:24:28.781Z,5.9
2023-02-11T05:27:31.211Z,5.9
2023-02-11T05:30:29.283Z,5.9
2023-02-11T05:33:28.306Z,5.9
2023-02-11T05:36:33.395Z,5.9
2023-02-11T05:39:31.826Z,6
2023-02-11T05:42:28.884Z,6
2023-02-11T05:45:28.837Z,6
2023-02-11T05:48:31.388Z,6
2023-02-11T05:51:28.569Z,6
2023-02-11T05:54:29.044Z,6
2023-02-11T05:57:31.421Z,6
2023-02-11T06:00:29.500Z,6
2023-02-11T06:03:29.803Z,6
2023-02-11T06:06:31.646Z,6.1
2023-02-11T06:09:29.198Z,6.1
2023-02-11T06:12:28.846Z,6.1
2023-02-11T06:15:28.802Z,6.1
2023-02-11T06:18:31.190Z,6.1
2023-02-11T06:21:44.641Z,6.1
2023-02-11T06:25:02.028Z,6.1
2023-02-11T06:27:31.660Z,6.2
2023-02-11T06:30:28.986Z,6.2
2023-02-11T06:33:28.269Z,6.2
2023-02-11T06:36:31.692Z,6.2
2023-02-11T06:39:28.677Z,6.2
2023-02-11T06:42:28.546Z,6.2
2023-02-11T06:45:31.780Z,6.3
2023-02-11T06:48:28.417Z,6.3
2023-02-11T06:51:29.065Z,6.3
2023-02-11T06:54:28.842Z,6.3
2023-02-11T06:57:31.177Z,6.3
2023-02-11T07:00:28.521Z,6.3
2023-02-11T07:03:29.199Z,6.3
2023-02-11T07:06:31.825Z,6.3
2023-02-11T07:09:28.893Z,6.3
2023-02-11T07:12:28.525Z,6.3
2023-02-11T07:15:31.962Z,6.3
2023-02-11T07:18:29.290Z,6.3
2023-02-11T07:21:29.285Z,6.3
2023-02-11T07:24:31.665Z,6.4
2023-02-11T07:27:29.043Z,6.4
2023-02-11T07:30:29.055Z,6.4
2023-02-11T07:33:28.826Z,6.4
2023-02-11T07:36:31.492Z,6.4
2023-02-11T07:39:28.903Z,6.4
2023-02-11T07:42:28.694Z,6.4
2023-02-11T07:45:31.177Z,6.4
2023-02-11T07:48:29.412Z,6.4
2023-02-11T07:51:29.283Z,6.4
2023-02-11T07:54:31.847Z,6.4
2023-02-11T07:57:29.292Z,6.4
2023-02-11T08:00:29.179Z,6.4
2023-02-11T08:03:31.821Z,6.5
2023-02-11T08:06:29.110Z,6.5
2023-02-11T08:09:28.750Z,6.5
2023-02-11T08:12:31.643Z,6.5
2023-02-11T08:15:28.852Z,6.5
2023-02-11T08:18:28.823Z,6.5
2023-02-11T08:21:28.757Z,6.5
2023-02-11T08:24:31.323Z,6.5
2023-02-11T08:27:29.553Z,6.5
2023-02-11T08:30:30.010Z,6.5
2023-02-11T08:33:31.520Z,6.6
2023-02-11T08:36:29.947Z,6.6
2023-02-11T08:39:29.123Z,6.6
2023-02-11T08:42:31.751Z,6.6
2023-02-11T08:45:29.033Z,6.6
2023-02-11T08:48:29.600Z,6.6
2023-02-11T08:51:31.317Z,6.6
2023-02-11T08:54:29.460Z,6.6
2023-02-11T08:57:29.649Z,6.6
2023-02-11T09:00:28.613Z,6.6
2023-02-11T09:03:31.167Z,6.7
2023-02-11T09:06:28.650Z,6.7
2023-02-11T09:09:28.808Z,6.7
2023-02-11T09:12:31.060Z,6.7
2023-02-11T09:15:28.631Z,6.7
2023-02-11T09:18:28.804Z,6.7
2023-02-11T09:21:31.279Z,6.7
2023-02-11T09:24:29.373Z,6.7
2023-02-11T09:27:29.289Z,6.7
2023-02-11T09:30:31.812Z,6.8
2023-02-11T09:33:29.656Z,6.8
2023-02-11T09:36:28.606Z,6.8
2023-02-11T09:39:29.538Z,6.8
2023-02-11T09:42:31.917Z,6.8
2023-02-11T09:45:29.061Z,6.8
2023-02-11T09:48:32.420Z,6.8
2023-02-11T09:51:31.920Z,6.8
2023-02-11T09:54:28.924Z,6.8
2023-02-11T09:57:29.733Z,6.8
2023-02-11T10:00:32.023Z,6.9
2023-02-11T10:03:28.872Z,6.9
2023-02-11T10:06:28.777Z,6.9
2023-02-11T10:09:31.555Z,6.9
2023-02-11T10:12:28.620Z,6.9
2023-02-11T10:15:29.550Z,6.9
2023-02-11T10:18:28.918Z,6.9
2023-02-11T10:21:31.081Z,7
2023-02-11T10:24:29.222Z,7
2023-02-11T10:27:29.271Z,7
2023-02-11T10:30:31.743Z,7
2023-02-11T10:33:29.259Z,7
2023-02-11T10:36:29.137Z,7
2023-02-11T10:39:31.520Z,7.1
2023-02-11T10:42:29.358Z,7.1
2023-02-11T10:45:29.316Z,7.1
2023-02-11T10:48:31.662Z,7.1
2023-02-11T10:51:28.556Z,7.1
2023-02-11T10:54:29.350Z,7.1
2023-02-11T10:57:29.289Z,7.1
2023-02-11T11:00:31.477Z,7.2
2023-02-11T11:03:29.117Z,7.2
2023-02-11T11:06:28.939Z,7.2
2023-02-11T11:09:31.663Z,7.3
2023-02-11T11:12:28.888Z,7.3
2023-02-11T11:15:28.914Z,7.3
2023-02-11T11:18:31.263Z,7.3
2023-02-11T11:21:29.339Z,7.3
2023-02-11T11:24:29.268Z,7.3
2023-02-11T11:27:31.864Z,7.4
2023-02-11T11:30:29.090Z,7.4
2023-02-11T11:33:29.166Z,7.4
2023-02-11T11:36:28.680Z,7.4
2023-02-11T11:39:31.043Z,7.5
2023-02-11T11:42:29.350Z,7.5
2023-02-11T11:45:29.172Z,7.5
2023-02-11T11:48:31.500Z,7.5
2023-02-11T11:51:28.383Z,7.5
2023-02-11T11:54:28.723Z,7.5
2023-02-11T11:57:31.101Z,7.6
2023-02-11T12:00:29.504Z,7.6
2023-02-11T12:03:28.789Z,7.6
2023-02-11T12:06:31.634Z,7.6
2023-02-11T12:09:29.033Z,7.6
2023-02-11T12:12:29.092Z,7.6
2023-02-11T12:15:28.936Z,7.6
2023-02-11T12:18:31.434Z,7.7
2023-02-11T12:21:28.539Z,7.7
2023-02-11T12:24:29.174Z,7.7
2023-02-11T12:27:31.922Z,7.7
2023-02-11T12:30:29.391Z,7.7
2023-02-11T12:33:29.111Z,7.7
2023-02-11T12:36:31.363Z,7.8
2023-02-11T12:39:28.626Z,7.8
2023-02-11T12:42:28.622Z,7.8
2023-02-11T12:45:31.550Z,7.8
2023-02-11T12:48:28.660Z,7.8
2023-02-11T12:51:29.417Z,7.8
2023-02-11T12:54:28.946Z,7.8
2023-02-11T12:57:31.156Z,7.8
2023-02-11T13:00:29.183Z,7.8
2023-02-11T13:03:28.871Z,7.8
2023-02-11T13:06:31.235Z,7.9
2023-02-11T13:09:29.395Z,7.9
2023-02-11T13:12:29.059Z,7.9
2023-02-11T13:15:31.478Z,7.9
2023-02-11T13:18:29.503Z,7.9
2023-02-11T13:21:29.288Z,7.9
2023-02-11T13:24:31.662Z,7.9
2023-02-11T13:27:28.859Z,7.9
2023-02-11T13:30:29.049Z,7.9
2023-02-11T13:33:29.196Z,7.9
2023-02-11T13:36:31.715Z,7.9
2023-02-11T13:39:28.918Z,7.9
2023-02-11T13:42:28.963Z,7.9
2023-02-11T13:45:31.469Z,7.9
2023-02-11T13:48:29.401Z,7.9
2023-02-11T13:51:29.189Z,7.9
2023-02-11T13:54:31.658Z,7.9
2023-02-11T13:57:28.717Z,7.9
2023-02-11T14:00:31.075Z,7.9
2023-02-11T14:03:31.430Z,7.9
2023-02-11T14:06:28.451Z,7.9
2023-02-11T14:09:29.183Z,7.9
2023-02-11T14:12:29.008Z,7.9
2023-02-11T14:15:31.462Z,7.9
2023-02-11T14:18:28.850Z,7.9
2023-02-11T14:21:28.756Z,7.9
2023-02-11T14:24:31.051Z,7.9
2023-02-11T14:27:29.270Z,7.9
2023-02-11T14:30:29.211Z,7.9
2023-02-11T14:33:31.909Z,7.9
2023-02-11T14:36:29.282Z,7.9
2023-02-11T14:39:28.910Z,7.9
2023-02-11T14:42:31.566Z,7.9
2023-02-11T14:45:28.602Z,7.9
2023-02-11T14:48:29.500Z,7.9
2023-02-11T14:51:28.625Z,7.9
2023-02-11T14:54:31.288Z,7.9
2023-02-11T14:57:28.450Z,7.9
2023-02-11T15:00:29.454Z,7.9
2023-02-11T15:03:31.306Z,7.9
2023-02-11T15:06:29.341Z,7.9
2023-02-11T15:09:28.993Z,7.9
2023-02-11T15:12:31.706Z,7.8
2023-02-11T15:15:28.909Z,7.8
2023-02-11T15:18:28.664Z,7.8
2023-02-11T15:21:31.996Z,7.8
2023-02-11T15:24:29.256Z,7.8
2023-02-11T15:27:28.975Z,7.8
2023-02-11T15:30:30.348Z,7.8
2023-02-11T15:33:31.778Z,7.8
2023-02-11T15:36:29.175Z,7.8
2023-02-11T15:39:29.266Z,7.8
2023-02-11T15:42:43.859Z,7.8
2023-02-11T15:45:29.506Z,7.8
2023-02-11T15:48:29.401Z,7.8
2023-02-11T15:51:30.996Z,7.7
2023-02-11T15:54:28.972Z,7.7
2023-02-11T15:57:28.937Z,7.7
2023-02-11T16:00:32.563Z,7.7
2023-02-11T16:03:29.097Z,7.7
2023-02-11T16:06:28.845Z,7.7
2023-02-11T16:09:28.576Z,7.7
2023-02-11T16:12:31.992Z,7.6
2023-02-11T16:15:29.278Z,7.6
2023-02-11T16:18:40.465Z,7.6
2023-02-11T16:21:31.360Z,7.6
2023-02-11T16:24:28.519Z,7.6
2023-02-11T16:27:28.667Z,7.6
2023-02-11T16:30:31.403Z,7.5
2023-02-11T16:33:28.896Z,7.5
2023-02-11T16:36:28.711Z,7.5
2023-02-11T16:39:31.090Z,7.4
2023-02-11T16:42:28.960Z,7.4
2023-02-11T16:45:29.026Z,7.4
2023-02-11T16:48:28.861Z,7.4
2023-02-11T16:51:31.264Z,7.4
2023-02-11T16:54:29.357Z,7.4
2023-02-11T16:57:30.752Z,7.4
2023-02-11T17:00:32.569Z,7.3
2023-02-11T17:03:30.571Z,7.3
2023-02-11T17:06:29.170Z,7.3
2023-02-11T17:09:34.120Z,7.3
2023-02-11T17:12:29.064Z,7.3
2023-02-11T17:15:28.915Z,7.3
2023-02-11T17:18:31.613Z,7.3
2023-02-11T17:21:30.588Z,7.3
2023-02-11T17:24:29.199Z,7.3
2023-02-11T17:27:28.795Z,7.3
2023-02-11T17:30:30.918Z,7.2
2023-02-11T17:33:29.173Z,7.2
2023-02-11T17:36:28.537Z,7.2
2023-02-11T17:39:30.859Z,7.2
2023-02-11T17:42:28.941Z,7.2
2023-02-11T17:45:28.963Z,7.2
2023-02-11T17:48:31.560Z,7.2
2023-02-11T17:51:28.356Z,7.2
2023-02-11T17:54:28.905Z,7.2
2023-02-11T17:57:30.929Z,7.1
2023-02-11T18:00:28.822Z,7.1
2023-02-11T18:03:28.558Z,7.1
2023-02-11T18:06:29.351Z,7.1
2023-02-11T18:09:31.654Z,7.1
2023-02-11T18:12:28.554Z,7.1
2023-02-11T18:15:29.217Z,7.1
2023-02-11T18:18:31.606Z,7
2023-02-11T18:21:29.203Z,7
2023-02-11T18:24:28.418Z,7
2023-02-11T18:27:31.582Z,7
2023-02-11T18:30:28.331Z,7
2023-02-11T18:33:29.135Z,7
2023-02-11T18:36:31.424Z,7
2023-02-11T18:39:28.522Z,7
2023-02-11T18:42:28.651Z,7
2023-02-11T18:45:28.638Z,7
2023-02-11T18:48:31.233Z,6.9
2023-02-11T18:51:29.118Z,6.9
2023-02-11T18:54:28.564Z,6.9
2023-02-11T18:57:30.846Z,6.9
2023-02-11T19:00:29.108Z,6.9
2023-02-11T19:03:28.878Z,6.9
2023-02-11T19:06:31.647Z,6.9
2023-02-11T19:09:28.522Z,6.9
2023-02-11T19:12:28.963Z,6.9
2023-02-11T19:15:31.313Z,6.9
2023-02-11T19:18:29.200Z,6.9
2023-02-11T19:21:28.959Z,6.9
2023-02-11T19:24:29.016Z,6.9
2023-02-11T19:27:31.378Z,6.9
2023-02-11T19:30:29.194Z,6.9
2023-02-11T19:33:28.955Z,6.9
2023-02-11T19:36:31.268Z,6.9
2023-02-11T19:39:29.288Z,6.9
2023-02-11T19:42:29.098Z,6.9
2023-02-11T19:45:31.307Z,6.9
2023-02-11T19:48:28.512Z,6.9
2023-02-11T19:51:28.328Z,6.9
2023-02-11T19:54:30.892Z,6.9
2023-02-11T19:57:29.300Z,6.9
2023-02-11T20:00:29.427Z,6.9
2023-02-11T20:03:29.206Z,6.9
2023-02-11T20:06:31.592Z,6.9
2023-02-11T20:09:28.754Z,6.9
2023-02-11T20:12:28.390Z,6.9
2023-02-11T20:15:31.784Z,6.9
2023-02-11T20:18:28.969Z,6.9
2023-02-11T20:21:29.066Z,6.9
2023-02-11T20:24:31.620Z,6.9
2023-02-11T20:27:28.762Z,6.9
2023-02-11T20:30:28.411Z,6.9
2023-02-11T20:33:31.570Z,6.9
2023-02-11T20:36:28.903Z,6.9
2023-02-11T20:39:29.342Z,6.9
2023-02-11T20:42:29.206Z,6.9
2023-02-11T20:45:31.685Z,6.9
2023-02-11T20:48:28.890Z,6.9
2023-02-11T20:51:28.720Z,6.9
2023-02-11T20:54:30.897Z,6.9
2023-02-11T20:57:29.045Z,6.9
2023-02-11T21:00:28.780Z,6.9
2023-02-11T21:03:31.141Z,6.9
2023-02-11T21:06:29.095Z,6.9
2023-02-11T21:09:29.119Z,6.9
2023-02-11T21:12:31.600Z,6.9
2023-02-11T21:15:28.553Z,6.9
2023-02-11T21:18:28.355Z,6.9
2023-02-11T21:21:29.217Z,6.9
2023-02-11T21:24:31.636Z,6.9
2023-02-11T21:27:28.413Z,6.9
2023-02-11T21:30:29.451Z,6.9
2023-02-11T21:33:31.620Z,6.9
2023-02-11T21:36:28.535Z,6.9
2023-02-11T21:39:28.632Z,6.9
2023-02-11T21:42:31.329Z,6.9
2023-02-11T21:45:32.536Z,6.9
2023-02-11T21:48:28.573Z,6.9
2023-02-11T21:51:30.816Z,6.9
2023-02-11T21:54:28.808Z,6.9
2023-02-11T21:57:28.486Z,6.9
2023-02-11T22:00:29.501Z,6.9
2023-02-11T22:03:31.448Z,6.9
2023-02-11T22:06:29.062Z,6.9
2023-02-11T22:09:28.786Z,6.9
2023-02-11T22:12:31.228Z,6.9
2023-02-11T22:15:28.685Z,6.9
2023-02-11T22:18:28.482Z,6.9
2023-02-11T22:21:31.892Z,6.9
2023-02-11T22:24:29.055Z,6.9
2023-02-11T22:27:28.840Z,6.9
2023-02-11T22:30:31.270Z,6.9
2023-02-11T22:33:28.306Z,6.9
2023-02-11T22:36:29.081Z,6.9
2023-02-11T22:39:31.372Z,6.9
2023-02-11T22:42:28.324Z,6.9
2023-02-11T22:45:29.046Z,6.9
2023-02-11T22:48:28.861Z,6.9
2023-02-11T22:51:31.096Z,6.9
2023-02-11T22:54:29.024Z,6.9
2023-02-11T22:57:28.944Z,6.9
2023-02-11T23:00:32.370Z,6.9
2023-02-11T23:03:28.716Z,6.9
2023-02-11T23:06:28.562Z,6.9
2023-02-11T23:09:31.031Z,6.9
2023-02-11T23:12:29.044Z,6.9
2023-02-11T23:15:28.978Z,6.9
2023-02-11T23:18:31.358Z,6.9
2023-02-11T23:21:29.467Z,6.9
2023-02-11T23:24:28.463Z,6.9
2023-02-11T23:27:28.476Z,6.9
2023-02-11T23:30:31.070Z,6.9
2023-02-11T23:33:29.183Z,6.9
2023-02-11T23:36:29.129Z,6.9
2023-02-11T23:39:31.616Z,6.8
2023-02-11T23:42:28.976Z,6.8
2023-02-11T23:45:28.550Z,6.8
2023-02-11T23:48:31.540Z,6.8
2023-02-11T23:51:28.625Z,6.8
2023-02-11T23:54:28.252Z,6.8
2023-02-11T23:57:31.536Z,6.8
